»·PEaware :: UAL1914 KPSP-KSFO

UAL1914 :: KPSP-KSFO

FLIGHT INFORMATION

Flight Status: Arrived
Operator:
United Airlines
More flights by this operator :: More flights under this callsign
Pilot: Henderson P. (1210)
Aircraft: AIRBUS A319
(A319)
More flights by this aircraft type
Origin: KPSP Palm Springs Intl
United States
Destination: KSFO San Francisco Intl
United States
More flights between these airports :: More routes between these airports
Route: +CATH1 PSP V386 PMD AVE MAKRS SERFR SERFR3
File this flight plan on PilotEdge
Remarks:
Altitude:
(Current/Filed)
38,000ft
Speed:
(Current/Filed)
456kts
Departed: 08-Oct-18 09:49 AM
Arrived: 08-Oct-18 11:06 AM
Distance/Time
Traveled:
366nm/1:17
Distance/Time
To Go:
Arrived

Flight Plot

Page will automatically refresh every two minutes.

Flight plan parsing failed; only flown route is shown


Map Options




Map Legend


Flown Route
Filed Route
Departure Airport
Arrival Airport
Navaid (VOR, NDB)
Fix

Horizontal Profiles

Position Reports

Time Latitude Longitude Heading Altitude Ground
Speed
08-Oct-18 09:05 33.823889 -116.506505 190 491ft 0kts
08-Oct-18 09:06 33.823889 -116.506505 190 491ft 0kts
08-Oct-18 09:07 33.823889 -116.506505 190 491ft 0kts
08-Oct-18 09:08 33.823889 -116.506505 190 491ft 0kts
08-Oct-18 09:09 33.823889 -116.506505 190 491ft 0kts
08-Oct-18 09:10 33.823889 -116.506505 190 491ft 0kts
08-Oct-18 09:11 33.823889 -116.506505 190 491ft 0kts
08-Oct-18 09:12 33.823889 -116.506505 190 491ft 0kts
08-Oct-18 09:13 33.823889 -116.506505 190 491ft 0kts
08-Oct-18 09:14 33.823889 -116.506505 190 491ft 0kts
08-Oct-18 09:15 33.823889 -116.506505 190 491ft 0kts
08-Oct-18 09:16 33.823889 -116.506505 190 491ft 0kts
08-Oct-18 09:17 33.823889 -116.506505 190 491ft 0kts
08-Oct-18 09:18 33.823889 -116.506505 190 491ft 0kts
08-Oct-18 09:19 33.823889 -116.506505 190 491ft 0kts
08-Oct-18 09:20 33.823889 -116.506505 190 491ft 0kts
08-Oct-18 09:21 33.823889 -116.506505 190 491ft 0kts
08-Oct-18 09:22 33.823889 -116.506505 190 491ft 0kts
08-Oct-18 09:23 33.823889 -116.506505 190 491ft 0kts
08-Oct-18 09:24 33.823889 -116.506505 190 491ft 0kts
08-Oct-18 09:25 33.823889 -116.506505 190 491ft 0kts
08-Oct-18 09:26 33.823889 -116.506505 190 491ft 0kts
08-Oct-18 09:27 33.823889 -116.506505 190 491ft 0kts
08-Oct-18 09:28 33.823889 -116.506505 190 491ft 0kts
08-Oct-18 09:29 33.823889 -116.506505 190 491ft 0kts
08-Oct-18 09:30 33.823889 -116.506505 190 491ft 0kts
08-Oct-18 09:31 33.823889 -116.506505 190 491ft 0kts
08-Oct-18 09:32 33.823889 -116.506505 190 491ft 0kts
08-Oct-18 09:33 33.823889 -116.506505 190 491ft 0kts
08-Oct-18 09:34 33.823889 -116.506505 190 491ft 0kts
08-Oct-18 09:35 33.823889 -116.506505 190 491ft 0kts
08-Oct-18 09:36 33.823889 -116.506505 190 491ft 0kts
08-Oct-18 09:37 33.823889 -116.506505 190 491ft 0kts
08-Oct-18 09:38 33.823889 -116.506505 190 491ft 0kts
08-Oct-18 09:39 33.823889 -116.506505 190 491ft 0kts
08-Oct-18 09:40 33.823889 -116.506505 190 491ft 0kts
08-Oct-18 09:41 33.823889 -116.506505 190 491ft 0kts
08-Oct-18 09:42 33.823913 -116.506500 190 491ft 1kts
08-Oct-18 09:43 33.824545 -116.506365 190 491ft 2kts
08-Oct-18 09:44 33.824777 -116.506315 190 491ft 0kts
08-Oct-18 09:45 33.824776 -116.506315 190 491ft 0kts
08-Oct-18 09:46 33.824775 -116.506316 190 491ft 0kts
08-Oct-18 09:47 33.824229 -116.505770 165 491ft 6kts
08-Oct-18 09:48 33.821954 -116.502848 142 491ft 18kts
08-Oct-18 09:49 33.818517 -116.499586 85 491ft 2kts
08-Oct-18 09:50 33.819024 -116.498249 344 491ft 11kts
08-Oct-18 09:51 33.842475 -116.519208 321 1115ft 164kts
08-Oct-18 09:52 33.883162 -116.556612 321 3053ft 218kts
08-Oct-18 09:53 33.944583 -116.587086 9 6013ft 260kts
08-Oct-18 09:54 33.971311 -116.513803 117 7031ft 295kts
08-Oct-18 09:55 33.903561 -116.456495 146 7028ft 300kts
08-Oct-18 09:56 33.849834 -116.384282 112 7007ft 295kts
08-Oct-18 09:57 33.813693 -116.294852 100 7157ft 293kts
08-Oct-18 09:58 33.854365 -116.230155 356 9978ft 273kts
08-Oct-18 09:59 33.897078 -116.299814 275 12712ft 323kts
08-Oct-18 10:00 33.900206 -116.413335 295 13226ft 340kts
08-Oct-18 10:01 33.967087 -116.481551 346 13197ft 327kts
08-Oct-18 10:02 34.057118 -116.506880 346 16057ft 334kts
08-Oct-18 10:03 34.143455 -116.536394 343 18716ft 338kts
08-Oct-18 10:04 34.233544 -116.571950 343 21221ft 343kts
08-Oct-18 10:05 34.325049 -116.607964 343 23446ft 348kts
08-Oct-18 10:06 34.417868 -116.645066 339 25381ft 355kts
08-Oct-18 10:07 34.494669 -116.723273 307 26979ft 385kts
08-Oct-18 10:08 34.520751 -116.855774 284 28367ft 420kts
08-Oct-18 10:09 34.534056 -116.998093 285 29643ft 429kts
08-Oct-18 10:10 34.547806 -117.142951 285 31023ft 432kts
08-Oct-18 10:11 34.561362 -117.286856 285 32593ft 428kts
08-Oct-18 10:12 34.574667 -117.430523 285 33997ft 426kts
08-Oct-18 10:13 34.587729 -117.572713 285 35219ft 424kts
08-Oct-18 10:14 34.600537 -117.714719 285 36334ft 421kts
08-Oct-18 10:15 34.613200 -117.856578 285 37175ft 421kts
08-Oct-18 10:16 34.624758 -117.988063 285 37824ft 421kts
08-Oct-18 10:17 34.659034 -118.117233 310 38012ft 394kts
08-Oct-18 10:18 34.720870 -118.227678 309 38006ft 396kts
08-Oct-18 10:19 34.781045 -118.339558 309 38010ft 395kts
08-Oct-18 10:20 34.841749 -118.451892 309 38005ft 397kts
08-Oct-18 10:21 34.902318 -118.564430 309 38028ft 398kts
08-Oct-18 10:22 34.962900 -118.677382 309 38058ft 398kts
08-Oct-18 10:23 35.023407 -118.790511 309 38066ft 400kts
08-Oct-18 10:24 35.084366 -118.904951 308 38039ft 401kts
08-Oct-18 10:25 35.140137 -119.009830 308 38014ft 401kts
08-Oct-18 10:26 35.195970 -119.115294 308 37986ft 401kts
08-Oct-18 10:27 35.256565 -119.230005 308 37934ft 402kts
08-Oct-18 10:28 35.317255 -119.345313 308 37962ft 402kts
08-Oct-18 10:29 35.378052 -119.461217 308 37950ft 404kts
08-Oct-18 10:30 35.438678 -119.577159 307 37969ft 405kts
08-Oct-18 10:31 35.499547 -119.693965 307 37971ft 406kts
08-Oct-18 10:32 35.560377 -119.811088 307 37972ft 407kts
08-Oct-18 10:33 35.620996 -119.928236 307 37974ft 407kts
08-Oct-18 10:34 35.656296 -120.062344 283 37928ft 428kts
08-Oct-18 10:35 35.669371 -120.208442 284 37938ft 429kts
08-Oct-18 10:36 35.685768 -120.347374 292 37981ft 421kts
08-Oct-18 10:37 35.730967 -120.469716 301 37983ft 414kts
08-Oct-18 10:38 35.779132 -120.596439 300 37982ft 415kts
08-Oct-18 10:39 35.828277 -120.725337 300 37973ft 415kts
08-Oct-18 10:40 35.876922 -120.853918 300 37921ft 416kts
08-Oct-18 10:41 35.925851 -120.983677 299 37892ft 416kts
08-Oct-18 10:42 35.974402 -121.113031 299 37296ft 417kts
08-Oct-18 10:43 36.023414 -121.244008 299 35766ft 420kts
08-Oct-18 10:44 36.079191 -121.368653 317 33378ft 412kts
08-Oct-18 10:45 36.173857 -121.446578 330 30915ft 410kts
08-Oct-18 10:46 36.270923 -121.522895 329 28465ft 411kts
08-Oct-18 10:47 36.366613 -121.597725 329 26044ft 404kts
08-Oct-18 10:48 36.455843 -121.667973 330 23788ft 392kts
08-Oct-18 10:49 36.544014 -121.737637 330 22266ft 356kts
08-Oct-18 10:50 36.627050 -121.803291 330 19968ft 343kts
08-Oct-18 10:51 36.705911 -121.865853 330 18041ft 330kts
08-Oct-18 10:52 36.787876 -121.907866 348 16268ft 315kts
08-Oct-18 10:53 36.872249 -121.930565 348 14555ft 305kts
08-Oct-18 10:54 36.954150 -121.953961 345 12850ft 298kts
08-Oct-18 10:55 37.032174 -121.984353 344 11396ft 282kts
08-Oct-18 10:56 37.102953 -122.011946 344 10280ft 260kts
08-Oct-18 10:57 37.171439 -122.038716 344 9001ft 256kts
08-Oct-18 10:58 37.239425 -122.065363 344 8037ft 262kts
08-Oct-18 10:59 37.303700 -122.090643 344 7644ft 263kts
08-Oct-18 11:00 37.370755 -122.117725 344 6348ft 239kts
08-Oct-18 11:01 37.431034 -122.138129 348 5187ft 224kts
08-Oct-18 11:02 37.487010 -122.158040 347 4302ft 197kts
08-Oct-18 11:03 37.535206 -122.178578 317 3277ft 186kts
08-Oct-18 11:04 37.558803 -122.232738 302 2189ft 150kts
08-Oct-18 11:05 37.576394 -122.274563 298 1496ft 130kts
08-Oct-18 11:06 37.593588 -122.314685 301 801ft 129kts
08-Oct-18 11:07 37.610141 -122.354553 300 155ft 128kts
08-Oct-18 11:08 37.620637 -122.379816 301 27ft 25kts
08-Oct-18 11:09 37.620778 -122.384827 300 27ft 14kts
08-Oct-18 11:10 37.622673 -122.389813 235 27ft 13kts
08-Oct-18 11:11 37.619475 -122.391834 126 27ft 12kts
08-Oct-18 11:12 37.617975 -122.388993 161 27ft 3kts
08-Oct-18 11:13 37.617681 -122.388836 157 27ft 0kts
08-Oct-18 11:14 37.617681 -122.388836 157 27ft 0kts

Navigation Log

Ident Type
Flight plan parsing failed, navigation log unavailable